createdAt,value
2022-11-03T00:01:37.818Z,99871.53
2022-11-03T00:04:07.724Z,99862.22
2022-11-03T00:06:37.624Z,99856.81
2022-11-03T00:09:08.530Z,99858.50
2022-11-03T00:11:41.928Z,99847.56
2022-11-03T00:14:12.520Z,99842.16
2022-11-03T00:16:41.101Z,99837.78
2022-11-03T00:19:10.771Z,99837.78
2022-11-03T00:21:39.656Z,99835.16
2022-11-03T00:24:09.015Z,99823.66
2022-11-03T00:26:39.460Z,99819.16
2022-11-03T00:48:04.240Z,99763.59
2022-11-03T00:50:34.845Z,99747.19
2022-11-03T00:53:03.366Z,99751.31
2022-11-03T00:55:31.974Z,99747.22
2022-11-03T00:58:00.148Z,99740.16
2022-11-03T01:00:28.421Z,99749.66
2022-11-03T01:02:58.100Z,99729.03
2022-11-03T01:05:43.962Z,99731.66
2022-11-03T01:08:12.938Z,99714.53
2022-11-03T01:11:01.383Z,99724.88
2022-11-03T01:13:29.776Z,99708.22
2022-11-03T01:15:59.569Z,99729.19
2022-11-03T01:18:29.187Z,99699.09
2022-11-03T01:20:57.891Z,99702.47
2022-11-03T01:23:26.089Z,99719.03
2022-11-03T01:25:54.499Z,99693.81
2022-11-03T01:28:22.957Z,99699.31
2022-11-03T01:30:51.173Z,99683.47
2022-11-03T01:33:19.517Z,99678.88
2022-11-03T01:35:54.236Z,99679.97
2022-11-03T01:38:22.501Z,99673.78
2022-11-03T01:40:50.805Z,99661.66
2022-11-03T01:43:20.074Z,99648.75
2022-11-03T01:45:52.432Z,99661.78
2022-11-03T01:48:21.433Z,99651.72
2022-11-03T01:50:52.965Z,99669.91
2022-11-03T01:53:22.531Z,99698.44
2022-11-03T01:55:53.114Z,99670.56
2022-11-03T01:58:24.959Z,99677.06
2022-11-03T02:00:59.324Z,99677.91
2022-11-03T02:03:29.387Z,99661.44
2022-11-03T02:06:00.038Z,99657.91
2022-11-03T02:08:35.600Z,99645.00
2022-11-03T02:11:24.455Z,99672.28
2022-11-03T02:13:52.977Z,99658.94
2022-11-03T02:16:23.343Z,99666.13
2022-11-03T02:18:52.859Z,99674.56
2022-11-03T02:21:29.124Z,99691.47
2022-11-03T02:24:07.461Z,99659.09
2022-11-03T02:26:37.368Z,99653.25
2022-11-03T02:29:05.755Z,99661.50
2022-11-03T02:31:41.069Z,99664.94
2022-11-03T02:34:17.595Z,99656.09
2022-11-03T02:36:50.976Z,99640.41
2022-11-03T02:39:25.173Z,99661.31
2022-11-03T02:41:58.105Z,99648.22
2022-11-03T02:44:27.396Z,99656.88
2022-11-03T02:46:59.491Z,99657.13
2022-11-03T02:49:27.686Z,99669.50
2022-11-03T02:52:01.970Z,99667.72
2022-11-03T02:54:35.925Z,99658.34
2022-11-03T02:57:12.975Z,99641.53
2022-11-03T02:59:48.864Z,99641.63
2022-11-03T03:02:23.474Z,99630.63
2022-11-03T03:04:56.198Z,99621.91
2022-11-03T03:07:28.872Z,99618.03
2022-11-03T03:10:02.789Z,99606.41
2022-11-03T03:12:33.695Z,99619.03
2022-11-03T03:15:05.169Z,99634.56
2022-11-03T03:17:41.756Z,99644.06
2022-11-03T03:20:16.364Z,99641.06
2022-11-03T03:22:48.981Z,99628.63
2022-11-03T03:25:20.084Z,99639.34
2022-11-03T03:27:52.178Z,99628.00
2022-11-03T03:30:21.163Z,99632.56
2022-11-03T03:32:52.137Z,99633.38
2022-11-03T03:35:24.058Z,99639.63
2022-11-03T03:37:58.369Z,99627.53
2022-11-03T03:40:32.024Z,99618.16
2022-11-03T03:43:03.130Z,99607.94
2022-11-03T03:45:32.748Z,99599.22
2022-11-03T03:48:01.377Z,99607.56
2022-11-03T03:50:33.912Z,99597.91
2022-11-03T03:53:02.868Z,99587.78
2022-11-03T03:55:37.241Z,99593.25
2022-11-03T03:58:07.910Z,99583.03
2022-11-03T04:00:40.177Z,99565.94
2022-11-03T04:03:14.017Z,99549.03
2022-11-03T04:05:42.252Z,99535.28
2022-11-03T04:08:11.048Z,99529.16
2022-11-03T04:10:39.497Z,99518.00
2022-11-03T04:13:27.508Z,99530.00
2022-11-03T04:16:13.247Z,99528.59
2022-11-03T04:19:00.365Z,99529.53
2022-11-03T04:21:46.013Z,99531.94
2022-11-03T04:24:14.345Z,99531.94
2022-11-03T04:26:42.637Z,99533.53
2022-11-03T04:29:13.117Z,99531.66
2022-11-03T04:31:41.457Z,99541.31
2022-11-03T04:34:13.286Z,99542.34
2022-11-03T04:36:41.646Z,99551.25
2022-11-03T04:39:19.911Z,99552.28
2022-11-03T04:41:48.521Z,99552.09
2022-11-03T04:44:18.414Z,99549.75
2022-11-03T04:46:47.683Z,99535.38
2022-11-03T04:49:23.304Z,99495.31
2022-11-03T04:51:51.789Z,99432.59
2022-11-03T04:54:23.637Z,99457.97
2022-11-03T04:56:52.813Z,99462.25
2022-11-03T04:59:22.682Z,99436.75
2022-11-03T05:01:51.660Z,99438.06
2022-11-03T05:04:20.418Z,99438.72
2022-11-03T05:06:52.666Z,99449.13
2022-11-03T05:09:25.565Z,99454.78
2022-11-03T05:11:54.346Z,99460.69
2022-11-03T05:14:27.612Z,99459.84
2022-11-03T05:16:58.820Z,99459.34
2022-11-03T05:19:34.749Z,99446.22
2022-11-03T05:22:04.943Z,99430.81
2022-11-03T05:24:34.715Z,99423.03
2022-11-03T05:27:03.194Z,99416.88
2022-11-03T05:29:37.051Z,99421.72
2022-11-03T05:32:12.577Z,99430.06
2022-11-03T05:34:44.945Z,99428.97
2022-11-03T05:37:26.827Z,99432.03
2022-11-03T05:39:58.400Z,99439.28
2022-11-03T05:42:33.022Z,99430.41
2022-11-03T05:45:09.383Z,99440.88
2022-11-03T05:47:40.321Z,99444.06
2022-11-03T05:50:17.566Z,99427.44
2022-11-03T05:52:48.848Z,99417.22
2022-11-03T05:55:27.994Z,99423.16
2022-11-03T05:57:59.486Z,99418.91
2022-11-03T06:00:33.328Z,99419.09
2022-11-03T06:03:02.980Z,99419.94
2022-11-03T06:05:33.651Z,99418.25
2022-11-03T06:08:04.295Z,99410.34
2022-11-03T06:10:37.087Z,99416.38
2022-11-03T06:13:09.763Z,99405.59
2022-11-03T06:15:39.493Z,99417.34
2022-11-03T06:18:16.067Z,99419.94
2022-11-03T06:20:51.372Z,99406.75
2022-11-03T06:23:20.892Z,99417.97
2022-11-03T06:25:50.144Z,99418.72
2022-11-03T06:28:22.045Z,99423.81
2022-11-03T06:30:52.203Z,99411.47
2022-11-03T06:33:24.709Z,99414.53
2022-11-03T06:35:55.844Z,99427.53
2022-11-03T06:38:26.907Z,99424.94
2022-11-03T06:40:55.528Z,99420.50
2022-11-03T06:43:26.583Z,99421.78
2022-11-03T06:45:58.952Z,99425.31
2022-11-03T06:48:29.574Z,99424.41
2022-11-03T06:51:00.040Z,99413.16
2022-11-03T06:53:32.701Z,99420.41
2022-11-03T06:56:01.632Z,99426.41
2022-11-03T06:58:33.790Z,99418.19
2022-11-03T07:01:13.847Z,99417.66
2022-11-03T07:03:42.298Z,99428.88
2022-11-03T07:06:19.631Z,99441.69
2022-11-03T07:08:51.020Z,99446.53
2022-11-03T07:11:21.195Z,99450.47
2022-11-03T07:13:51.713Z,99454.09
2022-11-03T07:16:28.776Z,99459.88
2022-11-03T07:19:00.405Z,99462.19
2022-11-03T07:21:37.558Z,99470.56
2022-11-03T07:24:15.220Z,99468.69
2022-11-03T07:26:43.471Z,99469.31
2022-11-03T07:29:18.022Z,99473.56
2022-11-03T07:31:47.636Z,99468.56
2022-11-03T07:34:20.577Z,99474.41
2022-11-03T07:36:54.431Z,99480.44
2022-11-03T07:39:24.121Z,99478.59
2022-11-03T07:41:52.718Z,99480.25
2022-11-03T07:44:22.424Z,99482.22
2022-11-03T07:46:52.315Z,99483.97
2022-11-03T07:49:28.264Z,99493.53
2022-11-03T07:51:58.670Z,99493.78
2022-11-03T07:54:31.438Z,99492.19
2022-11-03T07:57:01.528Z,99490.41
2022-11-03T07:59:34.358Z,99495.72
2022-11-03T08:02:16.650Z,99499.88
2022-11-03T08:04:45.094Z,99508.44
2022-11-03T08:07:13.457Z,99511.63
2022-11-03T08:09:41.655Z,99507.94
2022-11-03T08:12:09.856Z,99509.69
2022-11-03T08:14:38.165Z,99517.84
2022-11-03T08:17:07.758Z,99524.81
2022-11-03T08:19:35.947Z,99525.38
2022-11-03T08:22:04.372Z,99534.31
2022-11-03T08:24:32.605Z,99531.09
2022-11-03T08:27:01.123Z,99537.78
2022-11-03T08:29:29.301Z,99534.69
2022-11-03T08:31:57.705Z,99530.16
2022-11-03T08:34:27.297Z,99530.38
2022-11-03T08:36:55.499Z,99532.47
2022-11-03T08:39:23.686Z,99536.19
2022-11-03T08:41:51.884Z,99537.75
2022-11-03T08:44:20.027Z,99533.16
2022-11-03T08:46:48.142Z,99530.22
2022-11-03T08:49:16.312Z,99534.47
2022-11-03T08:51:45.890Z,99533.47
2022-11-03T08:54:14.033Z,99532.72
2022-11-03T08:56:42.289Z,99537.69
2022-11-03T08:59:10.408Z,99538.03
2022-11-03T09:01:38.582Z,99536.50
2022-11-03T09:04:06.838Z,99543.22
2022-11-03T09:06:35.058Z,99540.09
2022-11-03T09:11:52.817Z,99550.03
2022-11-03T09:14:20.998Z,99551.84
2022-11-03T09:16:49.204Z,99554.63
2022-11-03T09:19:17.457Z,99552.94
2022-11-03T09:21:46.286Z,99550.09
2022-11-03T09:24:15.810Z,99534.56
2022-11-03T09:26:44.253Z,99530.72
2022-11-03T09:29:12.383Z,99544.84
2022-11-03T09:31:40.541Z,99548.91
2022-11-03T09:34:09.161Z,99535.44
2022-11-03T09:36:37.356Z,99537.75
2022-11-03T09:39:05.684Z,99542.72
2022-11-03T09:41:55.731Z,99555.81
2022-11-03T09:44:24.453Z,99550.13
2022-11-03T09:46:58.039Z,99551.47
2022-11-03T09:49:27.542Z,99553.38
2022-11-03T09:51:56.858Z,99556.44
2022-11-03T09:54:25.284Z,99552.00
2022-11-03T09:56:54.878Z,99562.91
2022-11-03T09:59:24.716Z,99569.81
2022-11-03T10:01:55.073Z,99569.78
2022-11-03T10:04:28.115Z,99562.50
2022-11-03T10:06:57.109Z,99556.97
2022-11-03T10:09:26.649Z,99575.47
2022-11-03T10:11:56.815Z,99560.56
2022-11-03T10:14:25.531Z,99570.00
2022-11-03T10:17:00.321Z,99557.53
2022-11-03T10:19:28.944Z,99561.50
2022-11-03T10:21:57.052Z,99568.97
2022-11-03T10:24:26.660Z,99565.81
2022-11-03T10:26:56.435Z,99570.47
2022-11-03T10:29:26.534Z,99570.59
2022-11-03T10:31:56.525Z,99571.06
2022-11-03T10:34:27.699Z,99578.06
2022-11-03T10:37:17.300Z,99574.53
2022-11-03T10:39:46.173Z,99576.75
2022-11-03T10:42:21.565Z,99568.88
2022-11-03T10:44:52.836Z,99581.84
2022-11-03T10:47:26.899Z,99581.09
2022-11-03T10:49:56.271Z,99582.00
2022-11-03T10:52:26.693Z,99586.44
2022-11-03T10:54:57.592Z,99591.19
2022-11-03T10:57:28.717Z,99589.56
2022-11-03T10:59:57.967Z,99585.56
2022-11-03T11:02:31.398Z,99598.53
2022-11-03T11:05:01.457Z,99584.97
2022-11-03T11:07:34.867Z,99597.59
2022-11-03T11:10:08.940Z,99592.47
2022-11-03T11:12:38.626Z,99602.09
2022-11-03T11:15:38.594Z,99596.00
2022-11-03T11:18:06.951Z,99588.38
2022-11-03T11:20:40.230Z,99596.72
2022-11-03T11:23:48.225Z,99594.91
2022-11-03T11:26:34.468Z,99588.13
2022-11-03T11:29:42.232Z,99588.84
2022-11-03T11:32:49.949Z,99589.25
2022-11-03T11:36:06.700Z,99593.41
2022-11-03T11:39:14.285Z,99592.88
2022-11-03T11:42:07.277Z,99602.03
2022-11-03T11:44:59.989Z,99587.31
2022-11-03T11:47:51.862Z,99597.03
2022-11-03T11:50:32.569Z,99604.84
2022-11-03T11:53:17.276Z,99611.75
2022-11-03T11:55:50.533Z,99600.88
2022-11-03T11:58:23.865Z,99601.91
2022-11-03T12:00:55.107Z,99593.88
2022-11-03T12:03:37.510Z,99601.66
2022-11-03T12:06:07.115Z,99603.25
2022-11-03T12:08:35.559Z,99607.31
2022-11-03T12:11:05.617Z,99611.84
2022-11-03T12:13:48.480Z,99619.06
2022-11-03T12:16:36.341Z,99617.91
2022-11-03T12:19:36.642Z,99599.88
2022-11-03T12:22:07.358Z,99603.06
2022-11-03T12:24:48.111Z,99601.72
2022-11-03T12:27:43.681Z,99601.34
2022-11-03T12:30:17.565Z,99605.25
2022-11-03T12:32:46.252Z,99600.91
2022-11-03T12:35:14.851Z,99589.81
2022-11-03T12:37:44.771Z,99595.91
2022-11-03T12:40:14.754Z,99576.38
2022-11-03T12:42:43.140Z,99576.25
2022-11-03T12:45:13.869Z,99570.44
2022-11-03T12:47:42.285Z,99576.50
2022-11-03T12:50:10.992Z,99583.53
2022-11-03T12:52:39.316Z,99575.53
2022-11-03T12:55:09.632Z,99580.88
2022-11-03T12:57:37.913Z,99576.56
2022-11-03T13:00:07.450Z,99575.66
2022-11-03T13:02:35.918Z,99585.44
2022-11-03T13:05:04.579Z,99574.19
2022-11-03T13:07:34.888Z,99577.03
2022-11-03T13:10:04.929Z,99568.59
2022-11-03T13:12:36.667Z,99572.72
2022-11-03T13:15:07.949Z,99561.00
2022-11-03T13:17:59.137Z,99575.47
2022-11-03T13:20:24.688Z,99567.06
2022-11-03T13:22:53.092Z,99559.34
2022-11-03T13:25:24.353Z,99562.19
2022-11-03T13:27:54.925Z,99555.19
2022-11-03T13:30:23.382Z,99541.97
2022-11-03T13:32:51.530Z,99531.28
2022-11-03T13:35:20.288Z,99529.41
2022-11-03T13:37:48.740Z,99519.38
2022-11-03T13:43:07.892Z,99527.03
2022-11-03T13:45:36.577Z,99519.75
2022-11-03T13:50:53.820Z,99523.22
2022-11-03T13:56:23.669Z,99524.16
2022-11-03T14:05:17.021Z,99542.66
2022-11-03T14:08:05.050Z,99544.81
2022-11-03T14:10:46.064Z,99532.81
2022-11-03T14:13:34.803Z,99547.81
2022-11-03T14:16:11.436Z,99536.69
2022-11-03T14:18:39.703Z,99529.31
2022-11-03T14:21:08.000Z,99529.66
2022-11-03T14:23:36.258Z,99523.00
2022-11-03T14:26:21.340Z,99519.88
2022-11-03T14:28:52.650Z,99521.56
2022-11-03T14:31:22.272Z,99525.09
2022-11-03T14:33:50.425Z,99520.53
2022-11-03T14:36:19.159Z,99515.44
2022-11-03T14:38:49.990Z,99517.63
2022-11-03T14:41:36.032Z,99521.50
2022-11-03T14:44:04.478Z,99512.22
2022-11-03T14:46:34.163Z,99506.88
2022-11-03T14:49:02.864Z,99496.56
2022-11-03T14:51:31.649Z,99486.66
2022-11-03T14:53:59.925Z,99492.19
2022-11-03T14:56:28.099Z,99495.50
2022-11-03T14:58:56.360Z,99494.75
2022-11-03T15:01:24.607Z,99499.13
2022-11-03T15:03:54.276Z,99501.44
2022-11-03T15:06:22.489Z,99499.13
2022-11-03T15:08:55.984Z,99493.19
2022-11-03T15:11:24.789Z,99486.50
2022-11-03T15:13:54.503Z,99480.66
2022-11-03T15:16:23.476Z,99479.59
2022-11-03T15:18:53.135Z,99517.72
2022-11-03T15:21:21.586Z,99517.03
2022-11-03T15:26:38.009Z,99499.88
2022-11-03T15:29:06.293Z,99495.47
2022-11-03T15:31:34.433Z,99484.78
2022-11-03T15:34:07.700Z,99489.06
2022-11-03T15:36:37.384Z,99478.72
2022-11-03T15:39:05.564Z,99478.09
2022-11-03T15:41:33.745Z,99477.25
2022-11-03T15:44:01.982Z,99475.78
2022-11-03T15:46:30.251Z,99473.34
2022-11-03T15:48:58.896Z,99467.16
2022-11-03T15:51:30.009Z,99477.47
2022-11-03T15:53:59.415Z,99475.38
2022-11-03T15:56:27.997Z,99458.19
2022-11-03T15:58:56.446Z,99465.81
2022-11-03T16:01:24.788Z,99470.16
2022-11-03T16:03:53.384Z,99466.97
2022-11-03T16:06:27.031Z,99473.09
2022-11-03T16:09:10.177Z,99470.91
2022-11-03T16:11:38.858Z,99470.69
2022-11-03T16:14:07.031Z,99462.00
2022-11-03T16:16:35.214Z,99457.19
2022-11-03T16:19:03.545Z,99451.16
2022-11-03T16:21:31.669Z,99460.19
2022-11-03T16:23:59.888Z,99445.69
2022-11-03T16:26:31.475Z,99452.25
2022-11-03T16:29:00.436Z,99456.16
2022-11-03T16:31:28.712Z,99449.38
2022-11-03T16:33:56.956Z,99450.22
2022-11-03T16:36:25.192Z,99442.56
2022-11-03T16:38:53.443Z,99449.78
2022-11-03T16:41:21.629Z,99453.50
2022-11-03T16:43:52.597Z,99456.59
2022-11-03T16:46:20.814Z,99455.47
2022-11-03T16:48:49.116Z,99457.13
2022-11-03T16:51:17.790Z,99455.56
2022-11-03T16:53:46.396Z,99447.06
2022-11-03T16:56:14.659Z,99441.53
2022-11-03T16:58:42.882Z,99454.16
2022-11-03T17:01:12.581Z,99442.91
2022-11-03T17:03:40.902Z,99445.63
2022-11-03T17:06:09.219Z,99425.72
2022-11-03T17:08:53.803Z,99428.41
2022-11-03T17:11:36.593Z,99453.28
2022-11-03T17:14:06.380Z,99438.38
2022-11-03T17:19:04.695Z,99437.38
2022-11-03T17:21:33.182Z,99446.81
2022-11-03T17:24:01.940Z,99423.34
2022-11-03T17:26:42.861Z,99447.56
2022-11-03T17:29:16.839Z,99446.72
2022-11-03T17:31:46.758Z,99455.84
2022-11-03T17:34:15.331Z,99445.16
2022-11-03T17:36:44.832Z,99458.44
2022-11-03T17:39:16.768Z,99466.31
2022-11-03T17:41:45.141Z,99461.97
2022-11-03T17:44:14.071Z,99454.75
2022-11-03T17:46:42.596Z,99464.38
2022-11-03T17:49:12.184Z,99458.53
2022-11-03T17:51:43.680Z,99475.00
2022-11-03T17:54:17.408Z,99467.47
2022-11-03T17:56:46.071Z,99464.22
2022-11-03T17:59:17.088Z,99462.44
2022-11-03T18:01:45.795Z,99448.16
2022-11-03T18:04:16.746Z,99460.53
2022-11-03T18:06:45.535Z,99458.00
2022-11-03T18:09:13.924Z,99469.44
2022-11-03T18:12:01.204Z,99462.16
2022-11-03T18:14:30.405Z,99463.28
2022-11-03T18:16:59.466Z,99446.03
2022-11-03T18:19:29.849Z,99448.16
2022-11-03T18:21:59.046Z,99452.06
2022-11-03T18:24:28.475Z,99440.16
2022-11-03T18:26:56.691Z,99442.13
2022-11-03T18:29:29.837Z,99444.16
2022-11-03T18:31:58.884Z,99435.69
2022-11-03T18:34:28.222Z,99434.69
2022-11-03T18:36:57.984Z,99440.69
2022-11-03T18:39:28.118Z,99449.72
2022-11-03T18:41:56.886Z,99446.47
2022-11-03T18:44:28.550Z,99443.28
2022-11-03T18:46:57.870Z,99442.00
2022-11-03T18:49:27.290Z,99453.88
2022-11-03T18:52:03.390Z,99448.56
2022-11-03T18:54:34.504Z,99463.72
2022-11-03T18:57:03.216Z,99442.59
2022-11-03T18:59:35.113Z,99465.84
2022-11-03T19:02:03.806Z,99458.88
2022-11-03T19:04:32.782Z,99456.16
2022-11-03T19:07:03.824Z,99438.03
2022-11-03T19:09:32.092Z,99447.16
2022-11-03T19:12:02.028Z,99449.81
2022-11-03T19:14:33.518Z,99458.19
2022-11-03T19:19:54.332Z,99439.16
2022-11-03T19:22:24.982Z,99436.00
2022-11-03T19:24:54.449Z,99433.78
2022-11-03T19:27:26.741Z,99440.13
2022-11-03T19:29:57.073Z,99443.34
2022-11-03T19:32:28.425Z,99452.41
2022-11-03T19:35:00.637Z,99447.69
2022-11-03T19:37:35.797Z,99449.09
2022-11-03T19:40:08.907Z,99447.69
2022-11-03T19:42:37.156Z,99469.06
2022-11-03T19:45:07.320Z,99458.53
2022-11-03T19:47:47.831Z,99445.56
2022-11-03T19:50:23.412Z,99456.47
2022-11-03T19:52:56.306Z,99448.47
2022-11-03T19:55:29.683Z,99451.13
2022-11-03T19:58:02.074Z,99452.25
2022-11-03T20:00:31.661Z,99453.97
2022-11-03T20:02:59.927Z,99449.88
2022-11-03T20:05:28.194Z,99438.56
2022-11-03T20:08:00.820Z,99441.91
2022-11-03T20:10:31.782Z,99434.41
2022-11-03T20:13:03.277Z,99448.69
2022-11-03T20:15:31.598Z,99446.47
2022-11-03T20:18:00.272Z,99447.53
2022-11-03T20:20:33.799Z,99441.22
2022-11-03T20:23:05.989Z,99448.69
2022-11-03T20:25:35.164Z,99432.94
2022-11-03T20:28:14.848Z,99422.34
2022-11-03T20:30:43.525Z,99415.75
2022-11-03T20:33:15.632Z,99412.41
2022-11-03T20:35:45.359Z,99418.06
2022-11-03T20:38:19.154Z,99422.91
2022-11-03T20:40:49.163Z,99416.59
2022-11-03T20:43:26.661Z,99413.81
2022-11-03T20:45:55.370Z,99418.63
2022-11-03T20:48:24.008Z,99417.78
2022-11-03T20:50:52.942Z,99428.94
2022-11-03T20:53:24.486Z,99425.13
2022-11-03T20:55:53.056Z,99413.34
2022-11-03T20:58:21.860Z,99419.56
2022-11-03T21:00:55.480Z,99422.44
2022-11-03T21:57:03.140Z,99467.47
2022-11-03T21:59:31.380Z,99442.91
2022-11-03T22:02:16.671Z,99450.16
2022-11-03T22:09:03.282Z,99473.75
2022-11-03T22:11:54.568Z,99483.09
2022-11-03T22:14:50.808Z,99491.81
2022-11-03T22:20:39.898Z,99471.13
2022-11-03T22:23:42.003Z,99475.41
2022-11-03T22:26:30.425Z,99460.91
2022-11-03T22:29:20.818Z,99480.78
2022-11-03T22:32:01.111Z,99482.28
2022-11-03T22:35:09.034Z,99517.34
2022-11-03T22:37:46.774Z,99495.16
2022-11-03T22:40:32.738Z,99482.34
2022-11-03T22:43:38.191Z,99484.97
2022-11-03T22:46:32.967Z,99471.00
2022-11-03T22:49:25.473Z,99465.38
2022-11-03T22:52:54.144Z,99475.44
2022-11-03T22:55:46.427Z,99495.84
2022-11-03T22:58:30.601Z,99497.00
2022-11-03T23:00:59.404Z,99496.34
2022-11-03T23:04:00.654Z,99494.50
2022-11-03T23:06:40.296Z,99503.53
2022-11-03T23:09:17.672Z,99491.50
2022-11-03T23:12:01.862Z,99492.94
2022-11-03T23:14:54.103Z,99493.75
2022-11-03T23:17:53.788Z,99496.84
2022-11-03T23:20:46.383Z,99479.78
2022-11-03T23:23:32.042Z,99505.31
2022-11-03T23:26:00.306Z,99506.00
2022-11-03T23:28:31.647Z,99516.78
2022-11-03T23:31:03.214Z,99520.88
2022-11-03T23:33:32.925Z,99526.69
2022-11-03T23:36:14.733Z,99535.44
2022-11-03T23:38:46.209Z,99525.50
2022-11-03T23:41:21.960Z,99529.94
2022-11-03T23:43:55.585Z,99528.25
2022-11-03T23:46:46.051Z,99536.81
2022-11-03T23:49:15.375Z,99563.19
2022-11-03T23:51:43.743Z,99566.44
2022-11-03T23:54:17.984Z,99579.00
2022-11-03T23:57:05.487Z,99565.03
2022-11-03T23:59:35.342Z,99574.88
